sensor_id;sensor_type;location;lat;lon;timestamp;pressure;altitude;pressure_sealevel;temperature;humidity
76998;BME280;65930;48.874;10.734;2024-03-02T00:00:50;94972.41;;;5.46;100.00
76998;BME280;65930;48.874;10.734;2024-03-02T00:03:19;94973.59;;;5.41;100.00
76998;BME280;65930;48.874;10.734;2024-03-02T00:05:50;94966.13;;;5.45;100.00
76998;BME280;65930;48.874;10.734;2024-03-02T00:08:25;94959.06;;;5.58;100.00
76998;BME280;65930;48.874;10.734;2024-03-02T00:10:57;94956.72;;;5.50;100.00
76998;BME280;65930;48.874;10.734;2024-03-02T00:13:26;94959.06;;;5.44;100.00
76998;BME280;65930;48.874;10.734;2024-03-02T00:15:56;94968.84;;;5.42;100.00
76998;BME280;65930;48.874;10.734;2024-03-02T00:18:26;94970.84;;;5.45;100.00
76998;BME280;65930;48.874;10.734;2024-03-02T00:20:56;94954.75;;;5.43;100.00
76998;BME280;65930;48.874;10.734;2024-03-02T00:23:30;94962.59;;;5.45;100.00
76998;BME280;65930;48.874;10.734;2024-03-02T00:25:59;94962.59;;;5.45;100.00
76998;BME280;65930;48.874;10.734;2024-03-02T00:28:30;94970.06;;;5.44;100.00
76998;BME280;65930;48.874;10.734;2024-03-02T00:31:03;94961.03;;;5.44;100.00
76998;BME280;65930;48.874;10.734;2024-03-02T00:33:33;94970.44;;;5.46;100.00
76998;BME280;65930;48.874;10.734;2024-03-02T00:36:03;94964.16;;;5.49;100.00
76998;BME280;65930;48.874;10.734;2024-03-02T00:38:34;94966.13;;;5.42;100.00
76998;BME280;65930;48.874;10.734;2024-03-02T00:41:05;94970.81;;;5.38;100.00
76998;BME280;65930;48.874;10.734;2024-03-02T00:43:42;94959.06;;;5.33;100.00
76998;BME280;65930;48.874;10.734;2024-03-02T00:46:18;94969.28;;;5.22;100.00
76998;BME280;65930;48.874;10.734;2024-03-02T00:48:55;94970.81;;;5.23;100.00
76998;BME280;65930;48.874;10.734;2024-03-02T00:51:25;94971.63;;;5.35;100.00
76998;BME280;65930;48.874;10.734;2024-03-02T00:53:59;94973.19;;;5.36;100.00
76998;BME280;65930;48.874;10.734;2024-03-02T00:56:28;94970.06;;;5.41;100.00
76998;BME280;65930;48.874;10.734;2024-03-02T00:58:56;94962.97;;;5.32;100.00
76998;BME280;65930;48.874;10.734;2024-03-02T01:01:24;94977.91;;;5.31;100.00
76998;BME280;65930;48.874;10.734;2024-03-02T01:03:53;94973.19;;;5.28;100.00
76998;BME280;65930;48.874;10.734;2024-03-02T01:06:21;94978.66;;;5.43;100.00
76998;BME280;65930;48.874;10.734;2024-03-02T01:08:54;94980.25;;;5.37;100.00
76998;BME280;65930;48.874;10.734;2024-03-02T01:11:25;94975.16;;;5.28;100.00
76998;BME280;65930;48.874;10.734;2024-03-02T01:13:54;94976.72;;;5.32;100.00
76998;BME280;65930;48.874;10.734;2024-03-02T01:16:22;94974.00;;;5.22;100.00
76998;BME280;65930;48.874;10.734;2024-03-02T01:18:50;94973.97;;;5.25;100.00
76998;BME280;65930;48.874;10.734;2024-03-02T01:21:21;94979.06;;;5.23;100.00
76998;BME280;65930;48.874;10.734;2024-03-02T01:23:50;94960.63;;;5.13;100.00
76998;BME280;65930;48.874;10.734;2024-03-02T01:26:20;94970.44;;;5.14;100.00
76998;BME280;65930;48.874;10.734;2024-03-02T01:28:48;94963.00;;;5.08;100.00
76998;BME280;65930;48.874;10.734;2024-03-02T01:31:16;94969.25;;;5.15;100.00
76998;BME280;65930;48.874;10.734;2024-03-02T01:33:46;94964.94;;;5.14;100.00
76998;BME280;65930;48.874;10.734;2024-03-02T01:36:14;94962.19;;;5.14;100.00
76998;BME280;65930;48.874;10.734;2024-03-02T01:38:42;94963.78;;;5.08;100.00
76998;BME280;65930;48.874;10.734;2024-03-02T01:41:10;94965.34;;;5.09;100.00
76998;BME280;65930;48.874;10.734;2024-03-02T01:43:40;94968.84;;;5.13;100.00
76998;BME280;65930;48.874;10.734;2024-03-02T01:46:08;94972.41;;;5.28;100.00
76998;BME280;65930;48.874;10.734;2024-03-02T01:48:36;94968.50;;;5.25;100.00
76998;BME280;65930;48.874;10.734;2024-03-02T01:51:04;94971.63;;;5.24;100.00
76998;BME280;65930;48.874;10.734;2024-03-02T01:53:33;94974.78;;;5.26;100.00
76998;BME280;65930;48.874;10.734;2024-03-02T01:56:02;94975.56;;;5.26;100.00
76998;BME280;65930;48.874;10.734;2024-03-02T01:58:30;94972.03;;;5.22;100.00
76998;BME280;65930;48.874;10.734;2024-03-02T02:01:00;94966.13;;;5.20;100.00
76998;BME280;65930;48.874;10.734;2024-03-02T02:03:28;94969.69;;;5.17;100.00
76998;BME280;65930;48.874;10.734;2024-03-02T02:05:56;94959.47;;;5.18;100.00
76998;BME280;65930;48.874;10.734;2024-03-02T02:08:24;94969.28;;;5.29;100.00
76998;BME280;65930;48.874;10.734;2024-03-02T02:10:52;94963.00;;;5.36;100.00
76998;BME280;65930;48.874;10.734;2024-03-02T02:13:20;94969.28;;;5.29;100.00
76998;BME280;65930;48.874;10.734;2024-03-02T02:15:48;94967.31;;;5.33;100.00
76998;BME280;65930;48.874;10.734;2024-03-02T02:18:18;94968.88;;;5.24;100.00
76998;BME280;65930;48.874;10.734;2024-03-02T02:20:46;94956.31;;;5.33;100.00
76998;BME280;65930;48.874;10.734;2024-03-02T02:23:16;94952.78;;;5.37;100.00
76998;BME280;65930;48.874;10.734;2024-03-02T02:25:45;94960.63;;;5.35;100.00
76998;BME280;65930;48.874;10.734;2024-03-02T02:28:13;94963.38;;;5.35;100.00
76998;BME280;65930;48.874;10.734;2024-03-02T02:30:41;94958.66;;;5.39;100.00
76998;BME280;65930;48.874;10.734;2024-03-02T02:33:09;94962.22;;;5.36;100.00
76998;BME280;65930;48.874;10.734;2024-03-02T02:35:37;94973.97;;;5.29;100.00
76998;BME280;65930;48.874;10.734;2024-03-02T02:38:06;94972.78;;;5.33;100.00
76998;BME280;65930;48.874;10.734;2024-03-02T02:40:35;94973.59;;;5.30;100.00
76998;BME280;65930;48.874;10.734;2024-03-02T02:43:03;94981.81;;;5.34;100.00
76998;BME280;65930;48.874;10.734;2024-03-02T02:45:31;94970.06;;;5.26;100.00
76998;BME280;65930;48.874;10.734;2024-03-02T02:47:59;94961.44;;;5.31;100.00
76998;BME280;65930;48.874;10.734;2024-03-02T02:50:29;94963.78;;;5.22;100.00
76998;BME280;65930;48.874;10.734;2024-03-02T02:52:57;94971.59;;;5.27;100.00
76998;BME280;65930;48.874;10.734;2024-03-02T02:55:25;94974.75;;;5.29;100.00
76998;BME280;65930;48.874;10.734;2024-03-02T02:57:55;94977.91;;;5.31;100.00
76998;BME280;65930;48.874;10.734;2024-03-02T03:00:23;94979.47;;;5.32;100.00
76998;BME280;65930;48.874;10.734;2024-03-02T03:02:51;94970.06;;;5.41;100.00
76998;BME280;65930;48.874;10.734;2024-03-02T03:05:21;94976.34;;;5.45;100.00
76998;BME280;65930;48.874;10.734;2024-03-02T03:07:49;94984.97;;;5.40;100.00
76998;BME280;65930;48.874;10.734;2024-03-02T03:10:17;94973.19;;;5.36;100.00
76998;BME280;65930;48.874;10.734;2024-03-02T03:12:48;94981.81;;;5.23;100.00
76998;BME280;65930;48.874;10.734;2024-03-02T03:15:18;94977.50;;;5.15;100.00
76998;BME280;65930;48.874;10.734;2024-03-02T03:17:46;94967.69;;;5.14;100.00
76998;BME280;65930;48.874;10.734;2024-03-02T03:20:14;94964.56;;;5.12;100.00
76998;BME280;65930;48.874;10.734;2024-03-02T03:22:42;94973.19;;;5.07;100.00
76998;BME280;65930;48.874;10.734;2024-03-02T03:25:10;94970.84;;;5.30;100.00
76998;BME280;65930;48.874;10.734;2024-03-02T03:27:39;94984.56;;;5.20;100.00
76998;BME280;65930;48.874;10.734;2024-03-02T03:30:12;94977.91;;;5.17;100.00
76998;BME280;65930;48.874;10.734;2024-03-02T03:32:42;94977.50;;;5.12;100.00
76998;BME280;65930;48.874;10.734;2024-03-02T03:35:09;94980.66;;;5.17;100.00
76998;BME280;65930;48.874;10.734;2024-03-02T03:37:39;94966.91;;;5.00;100.00
76998;BME280;65930;48.874;10.734;2024-03-02T03:40:08;94973.97;;;5.04;100.00
76998;BME280;65930;48.874;10.734;2024-03-02T03:42:37;94966.91;;;4.96;100.00
76998;BME280;65930;48.874;10.734;2024-03-02T03:45:07;94962.56;;;4.95;100.00
76998;BME280;65930;48.874;10.734;2024-03-02T03:47:35;94948.47;;;4.93;100.00
76998;BME280;65930;48.874;10.734;2024-03-02T03:50:05;94955.53;;;4.94;100.00
76998;BME280;65930;48.874;10.734;2024-03-02T03:52:34;94964.94;;;5.00;100.00
76998;BME280;65930;48.874;10.734;2024-03-02T03:55:02;94960.25;;;4.94;100.00
76998;BME280;65930;48.874;10.734;2024-03-02T03:57:32;94974.75;;;4.94;100.00
76998;BME280;65930;48.874;10.734;2024-03-02T04:00:00;94978.66;;;4.90;100.00
76998;BME280;65930;48.874;10.734;2024-03-02T04:02:30;94976.28;;;4.95;100.00
76998;BME280;65930;48.874;10.734;2024-03-02T04:04:59;94979.44;;;4.83;100.00
76998;BME280;65930;48.874;10.734;2024-03-02T04:07:28;94979.44;;;4.90;100.00
76998;BME280;65930;48.874;10.734;2024-03-02T04:09:57;94983.38;;;4.89;100.00
76998;BME280;65930;48.874;10.734;2024-03-02T04:12:27;94974.75;;;4.94;100.00
76998;BME280;65930;48.874;10.734;2024-03-02T04:14:55;94988.06;;;4.96;100.00
76998;BME280;65930;48.874;10.734;2024-03-02T04:17:23;94992.38;;;5.00;100.00
76998;BME280;65930;48.874;10.734;2024-03-02T04:19:51;94993.56;;;4.96;100.00
76998;BME280;65930;48.874;10.734;2024-03-02T04:22:19;95002.97;;;4.98;100.00
76998;BME280;65930;48.874;10.734;2024-03-02T04:24:52;94995.50;;;4.95;100.00
76998;BME280;65930;48.874;10.734;2024-03-02T04:27:21;94994.75;;;4.98;100.00
76998;BME280;65930;48.874;10.734;2024-03-02T04:29:50;94997.09;;;4.96;100.00
76998;BME280;65930;48.874;10.734;2024-03-02T04:32:17;94997.09;;;4.89;100.00
76998;BME280;65930;48.874;10.734;2024-03-02T04:34:46;94995.50;;;4.92;100.00
76998;BME280;65930;48.874;10.734;2024-03-02T04:37:14;94994.72;;;4.84;100.00
76998;BME280;65930;48.874;10.734;2024-03-02T04:39:42;94995.88;;;4.86;100.00
76998;BME280;65930;48.874;10.734;2024-03-02T04:42:12;94989.25;;;4.80;100.00
76998;BME280;65930;48.874;10.734;2024-03-02T04:44:40;94989.63;;;4.82;100.00
76998;BME280;65930;48.874;10.734;2024-03-02T04:47:08;94993.16;;;4.79;100.00
76998;BME280;65930;48.874;10.734;2024-03-02T04:49:36;94995.88;;;4.79;100.00
76998;BME280;65930;48.874;10.734;2024-03-02T04:52:04;94999.00;;;4.81;100.00
76998;BME280;65930;48.874;10.734;2024-03-02T04:54:32;94993.94;;;4.80;100.00
76998;BME280;65930;48.874;10.734;2024-03-02T04:57:22;94998.22;;;4.81;100.00
76998;BME280;65930;48.874;10.734;2024-03-02T04:59:50;94991.97;;;4.84;100.00
76998;BME280;65930;48.874;10.734;2024-03-02T05:02:20;94992.31;;;4.72;100.00
76998;BME280;65930;48.874;10.734;2024-03-02T05:04:48;94980.19;;;4.76;100.00
76998;BME280;65930;48.874;10.734;2024-03-02T05:07:16;94987.25;;;4.77;100.00
76998;BME280;65930;48.874;10.734;2024-03-02T05:09:44;94995.06;;;4.72;100.00
76998;BME280;65930;48.874;10.734;2024-03-02T05:12:15;94984.88;;;4.69;100.00
76998;BME280;65930;48.874;10.734;2024-03-02T05:15:09;94990.38;;;4.65;100.00
76998;BME280;65930;48.874;10.734;2024-03-02T05:17:38;94991.16;;;4.66;100.00
76998;BME280;65930;48.874;10.734;2024-03-02T05:20:07;94987.22;;;4.67;100.00
76998;BME280;65930;48.874;10.734;2024-03-02T05:22:36;94990.38;;;4.65;100.00
76998;BME280;65930;48.874;10.734;2024-03-02T05:25:07;94995.84;;;4.65;100.00
76998;BME280;65930;48.874;10.734;2024-03-02T05:27:36;94997.44;;;4.66;100.00
76998;BME280;65930;48.874;10.734;2024-03-02T05:30:05;94999.75;;;4.57;100.00
76998;BME280;65930;48.874;10.734;2024-03-02T05:32:35;94996.59;;;4.59;100.00
76998;BME280;65930;48.874;10.734;2024-03-02T05:35:05;94998.94;;;4.53;100.00
76998;BME280;65930;48.874;10.734;2024-03-02T05:37:33;94996.59;;;4.55;100.00
76998;BME280;65930;48.874;10.734;2024-03-02T05:40:01;94999.75;;;4.57;100.00
76998;BME280;65930;48.874;10.734;2024-03-02T05:42:29;95011.53;;;4.65;100.00
76998;BME280;65930;48.874;10.734;2024-03-02T05:44:57;95009.94;;;4.64;100.00
76998;BME280;65930;48.874;10.734;2024-03-02T05:47:25;95007.59;;;4.59;100.00
76998;BME280;65930;48.874;10.734;2024-03-02T05:49:56;95003.63;;;4.53;100.00
76998;BME280;65930;48.874;10.734;2024-03-02T05:52:23;95003.25;;;4.51;100.00
76998;BME280;65930;48.874;10.734;2024-03-02T05:54:51;95007.56;;;4.52;100.00
76998;BME280;65930;48.874;10.734;2024-03-02T05:57:20;95009.13;;;4.49;100.00
76998;BME280;65930;48.874;10.734;2024-03-02T06:00:00;95008.31;;;4.49;100.00
76998;BME280;65930;48.874;10.734;2024-03-02T06:02:32;95007.53;;;4.44;100.00
76998;BME280;65930;48.874;10.734;2024-03-02T06:05:06;95008.69;;;4.43;100.00
76998;BME280;65930;48.874;10.734;2024-03-02T06:07:35;95002.84;;;4.49;100.00
76998;BME280;65930;48.874;10.734;2024-03-02T06:10:04;95011.06;;;4.49;100.00
76998;BME280;65930;48.874;10.734;2024-03-02T06:12:38;95011.47;;;4.47;100.00
76998;BME280;65930;48.874;10.734;2024-03-02T06:15:06;95014.59;;;4.46;100.00
76998;BME280;65930;48.874;10.734;2024-03-02T06:17:35;95010.69;;;4.50;100.00
76998;BME280;65930;48.874;10.734;2024-03-02T06:20:03;95018.53;;;4.52;100.00
76998;BME280;65930;48.874;10.734;2024-03-02T06:22:33;95018.53;;;4.52;100.00
76998;BME280;65930;48.874;10.734;2024-03-02T06:25:01;95013.06;;;4.52;100.00
76998;BME280;65930;48.874;10.734;2024-03-02T06:27:29;95023.25;;;4.51;100.00
76998;BME280;65930;48.874;10.734;2024-03-02T06:29:57;95022.44;;;4.47;100.00
76998;BME280;65930;48.874;10.734;2024-03-02T06:32:26;95027.88;;;4.43;100.00
76998;BME280;65930;48.874;10.734;2024-03-02T06:34:54;95018.53;;;4.52;100.00
76998;BME280;65930;48.874;10.734;2024-03-02T06:37:22;95023.25;;;4.51;100.00
76998;BME280;65930;48.874;10.734;2024-03-02T06:39:51;95027.16;;;4.50;100.00
76998;BME280;65930;48.874;10.734;2024-03-02T06:42:19;95030.31;;;4.56;100.00
76998;BME280;65930;48.874;10.734;2024-03-02T06:44:47;95031.06;;;4.53;100.00
76998;BME280;65930;48.874;10.734;2024-03-02T06:47:15;95020.09;;;4.53;100.00
76998;BME280;65930;48.874;10.734;2024-03-02T06:49:44;95017.75;;;4.51;100.00
76998;BME280;65930;48.874;10.734;2024-03-02T06:52:12;95025.56;;;4.53;100.00
76998;BME280;65930;48.874;10.734;2024-03-02T06:54:40;95016.59;;;4.52;100.00
76998;BME280;65930;48.874;10.734;2024-03-02T06:57:09;95017.38;;;4.60;100.00
76998;BME280;65930;48.874;10.734;2024-03-02T06:59:38;95016.97;;;4.58;100.00
76998;BME280;65930;48.874;10.734;2024-03-02T07:02:06;95020.53;;;4.62;100.00
76998;BME280;65930;48.874;10.734;2024-03-02T07:04:35;95023.66;;;4.57;100.00
76998;BME280;65930;48.874;10.734;2024-03-02T07:07:03;95023.28;;;4.69;100.00
76998;BME280;65930;48.874;10.734;2024-03-02T07:09:31;95022.91;;;4.74;100.00
76998;BME280;65930;48.874;10.734;2024-03-02T07:11:59;95027.25;;;4.78;100.00
76998;BME280;65930;48.874;10.734;2024-03-02T07:14:29;95030.00;;;4.96;100.00
76998;BME280;65930;48.874;10.734;2024-03-02T07:17:11;95033.56;;;5.07;100.00
76998;BME280;65930;48.874;10.734;2024-03-02T07:19:38;95035.94;;;5.19;100.00
76998;BME280;65930;48.874;10.734;2024-03-02T07:22:07;95028.09;;;5.21;100.00
76998;BME280;65930;48.874;10.734;2024-03-02T07:24:39;95032.44;;;5.22;100.00
76998;BME280;65930;48.874;10.734;2024-03-02T07:27:09;95033.59;;;5.28;100.00
76998;BME280;65930;48.874;10.734;2024-03-02T07:29:38;95029.66;;;5.15;100.00
76998;BME280;65930;48.874;10.734;2024-03-02T07:32:07;95036.72;;;5.20;100.00
76998;BME280;65930;48.874;10.734;2024-03-02T07:34:36;95028.13;;;5.36;100.00
76998;BME280;65930;48.874;10.734;2024-03-02T07:37:05;95033.63;;;5.36;100.00
76998;BME280;65930;48.874;10.734;2024-03-02T07:39:33;95031.25;;;5.45;100.00
76998;BME280;65930;48.874;10.734;2024-03-02T07:42:01;95028.09;;;5.43;100.00
76998;BME280;65930;48.874;10.734;2024-03-02T07:44:29;95036.72;;;5.55;100.00
76998;BME280;65930;48.874;10.734;2024-03-02T07:46:59;95039.88;;;5.47;100.00
76998;BME280;65930;48.874;10.734;2024-03-02T07:49:27;95035.19;;;5.44;100.00
76998;BME280;65930;48.874;10.734;2024-03-02T07:51:55;95038.72;;;5.62;100.00
76998;BME280;65930;48.874;10.734;2024-03-02T07:54:23;95047.75;;;5.73;100.00
76998;BME280;65930;48.874;10.734;2024-03-02T07:56:51;95046.94;;;5.76;100.00
76998;BME280;65930;48.874;10.734;2024-03-02T07:59:19;95043.81;;;5.99;100.00
76998;BME280;65930;48.874;10.734;2024-03-02T08:01:49;95038.69;;;6.04;100.00
76998;BME280;65930;48.874;10.734;2024-03-02T08:04:18;95048.47;;;6.16;100.00
76998;BME280;65930;48.874;10.734;2024-03-02T08:06:46;95039.78;;;6.39;100.00
76998;BME280;65930;48.874;10.734;2024-03-02T08:09:14;95042.94;;;6.34;100.00
76998;BME280;65930;48.874;10.734;2024-03-02T08:11:42;95053.13;;;6.40;100.00
76998;BME280;65930;48.874;10.734;2024-03-02T08:14:10;95049.09;;;6.70;100.00
76998;BME280;65930;48.874;10.734;2024-03-02T08:16:38;95046.69;;;6.82;100.00
76998;BME280;65930;48.874;10.734;2024-03-02T08:19:07;95045.81;;;6.99;100.00
76998;BME280;65930;48.874;10.734;2024-03-02T08:21:38;95045.00;;;7.02;100.00
76998;BME280;65930;48.874;10.734;2024-03-02T08:24:06;95043.69;;;7.25;100.00
76998;BME280;65930;48.874;10.734;2024-03-02T08:26:34;95038.03;;;7.46;100.00
76998;BME280;65930;48.874;10.734;2024-03-02T08:29:02;95045.75;;;7.65;100.00
76998;BME280;65930;48.874;10.734;2024-03-02T08:31:30;95037.16;;;7.56;100.00
76998;BME280;65930;48.874;10.734;2024-03-02T08:33:58;95043.69;;;7.76;100.00
76998;BME280;65930;48.874;10.734;2024-03-02T08:36:27;95050.59;;;7.98;100.00
76998;BME280;65930;48.874;10.734;2024-03-02T08:38:56;95046.72;;;7.92;100.00
76998;BME280;65930;48.874;10.734;2024-03-02T08:41:24;95049.38;;;8.03;100.00
76998;BME280;65930;48.874;10.734;2024-03-02T08:43:52;95052.25;;;7.92;100.00
76998;BME280;65930;48.874;10.734;2024-03-02T08:46:21;95042.13;;;7.75;100.00
76998;BME280;65930;48.874;10.734;2024-03-02T08:48:49;95048.00;;;8.25;100.00
76998;BME280;65930;48.874;10.734;2024-03-02T08:51:17;95039.56;;;7.98;100.00
76998;BME280;65930;48.874;10.734;2024-03-02T08:53:44;95046.38;;;8.28;100.00
76998;BME280;65930;48.874;10.734;2024-03-02T08:56:14;95040.06;;;8.31;100.00
76998;BME280;65930;48.874;10.734;2024-03-02T08:58:43;95037.59;;;8.40;100.00
76998;BME280;65930;48.874;10.734;2024-03-02T09:01:11;95044.72;;;7.96;100.00
76998;BME280;65930;48.874;10.734;2024-03-02T09:03:39;95034.53;;;8.34;100.00
76998;BME280;65930;48.874;10.734;2024-03-02T09:06:08;95043.66;;;8.24;100.00
76998;BME280;65930;48.874;10.734;2024-03-02T09:08:36;95039.44;;;8.50;100.00
76998;BME280;65930;48.874;10.734;2024-03-02T09:11:05;95043.66;;;8.96;100.00
76998;BME280;65930;48.874;10.734;2024-03-02T09:13:36;95042.78;;;8.68;100.00
76998;BME280;65930;48.874;10.734;2024-03-02T09:16:05;95038.72;;;8.80;100.00
76998;BME280;65930;48.874;10.734;2024-03-02T09:18:37;95037.66;;;9.01;100.00
76998;BME280;65930;48.874;10.734;2024-03-02T09:21:05;95036.97;;;8.63;100.00
76998;BME280;65930;48.874;10.734;2024-03-02T09:23:34;95026.94;;;8.76;100.00
76998;BME280;65930;48.874;10.734;2024-03-02T09:26:02;95035.69;;;8.71;100.00
76998;BME280;65930;48.874;10.734;2024-03-02T09:28:30;95037.88;;;8.83;100.00
76998;BME280;65930;48.874;10.734;2024-03-02T09:31:00;95044.75;;;9.02;100.00
76998;BME280;65930;48.874;10.734;2024-03-02T09:33:28;95039.69;;;8.66;100.00
76998;BME280;65930;48.874;10.734;2024-03-02T09:35:56;95035.91;;;9.14;100.00
76998;BME280;65930;48.874;10.734;2024-03-02T09:38:24;95036.97;;;9.23;100.00
76998;BME280;65930;48.874;10.734;2024-03-02T09:40:52;95041.72;;;9.23;100.00
76998;BME280;65930;48.874;10.734;2024-03-02T09:43:20;95044.66;;;9.09;100.00
76998;BME280;65930;48.874;10.734;2024-03-02T09:45:50;95043.22;;;8.67;100.00
76998;BME280;65930;48.874;10.734;2024-03-02T09:48:20;95045.19;;;8.97;100.00
76998;BME280;65930;48.874;10.734;2024-03-02T09:50:51;95040.97;;;8.89;100.00
76998;BME280;65930;48.874;10.734;2024-03-02T09:53:20;95040.13;;;8.92;100.00
76998;BME280;65930;48.874;10.734;2024-03-02T09:55:48;95047.06;;;8.76;100.00
76998;BME280;65930;48.874;10.734;2024-03-02T09:58:16;95038.84;;;8.69;100.00
76998;BME280;65930;48.874;10.734;2024-03-02T10:00:47;95044.75;;;8.71;100.00
76998;BME280;65930;48.874;10.734;2024-03-02T10:03:20;95049.25;;;8.58;100.00
76998;BME280;65930;48.874;10.734;2024-03-02T10:05:51;95042.44;;;8.66;100.00
76998;BME280;65930;48.874;10.734;2024-03-02T10:08:19;95034.53;;;8.31;100.00
76998;BME280;65930;48.874;10.734;2024-03-02T10:10:50;95042.06;;;8.64;100.00
76998;BME280;65930;48.874;10.734;2024-03-02T10:13:24;95036.47;;;8.71;100.00
76998;BME280;65930;48.874;10.734;2024-03-02T10:15:53;95036.41;;;8.75;100.00
76998;BME280;65930;48.874;10.734;2024-03-02T10:18:26;95034.16;;;8.66;100.00
76998;BME280;65930;48.874;10.734;2024-03-02T10:21:13;95029.19;;;8.84;100.00
76998;BME280;65930;48.874;10.734;2024-03-02T10:23:41;95031.69;;;8.75;100.00
76998;BME280;65930;48.874;10.734;2024-03-02T10:26:16;95036.59;;;8.61;100.00
76998;BME280;65930;48.874;10.734;2024-03-02T10:28:48;95020.03;;;8.61;100.00
76998;BME280;65930;48.874;10.734;2024-03-02T10:31:17;95033.28;;;8.73;100.00
76998;BME280;65930;48.874;10.734;2024-03-02T10:33:47;95027.53;;;8.91;100.00
76998;BME280;65930;48.874;10.734;2024-03-02T10:36:15;95030.75;;;8.86;100.00
76998;BME280;65930;48.874;10.734;2024-03-02T10:38:44;95022.38;;;8.62;100.00
76998;BME280;65930;48.874;10.734;2024-03-02T10:41:18;95034.59;;;8.95;100.00
76998;BME280;65930;48.874;10.734;2024-03-02T10:43:46;95021.06;;;9.04;100.00
76998;BME280;65930;48.874;10.734;2024-03-02T10:46:18;95027.66;;;9.10;100.00
76998;BME280;65930;48.874;10.734;2024-03-02T10:48:48;95019.94;;;8.98;100.00
76998;BME280;65930;48.874;10.734;2024-03-02T10:51:17;95023.19;;;9.20;100.00
76998;BME280;65930;48.874;10.734;2024-03-02T10:53:45;95013.34;;;9.46;100.00
76998;BME280;65930;48.874;10.734;2024-03-02T10:56:17;95014.72;;;9.57;100.00
76998;BME280;65930;48.874;10.734;2024-03-02T10:58:55;95002.28;;;9.19;99.38
76998;BME280;65930;48.874;10.734;2024-03-02T11:01:30;95006.06;;;9.02;100.00
76998;BME280;65930;48.874;10.734;2024-03-02T11:04:02;95004.22;;;9.22;100.00
76998;BME280;65930;48.874;10.734;2024-03-02T11:06:32;95001.81;;;9.24;100.00
76998;BME280;65930;48.874;10.734;2024-03-02T11:09:07;94992.03;;;9.43;100.00
76998;BME280;65930;48.874;10.734;2024-03-02T11:11:40;94990.75;;;9.24;100.00
76998;BME280;65930;48.874;10.734;2024-03-02T11:14:14;94989.66;;;9.45;100.00
76998;BME280;65930;48.874;10.734;2024-03-02T11:16:46;94994.34;;;9.21;100.00
76998;BME280;65930;48.874;10.734;2024-03-02T11:19:16;94974.00;;;9.35;100.00
76998;BME280;65930;48.874;10.734;2024-03-02T11:21:46;94978.09;;;9.26;100.00
76998;BME280;65930;48.874;10.734;2024-03-02T11:24:33;94975.81;;;9.21;100.00
76998;BME280;65930;48.874;10.734;2024-03-02T11:27:05;94979.59;;;9.31;100.00
76998;BME280;65930;48.874;10.734;2024-03-02T11:29:44;94981.31;;;9.71;98.29
76998;BME280;65930;48.874;10.734;2024-03-02T11:32:21;94968.50;;;9.58;97.83
76998;BME280;65930;48.874;10.734;2024-03-02T11:34:52;94965.69;;;9.61;96.89
76998;BME280;65930;48.874;10.734;2024-03-02T11:37:20;94967.53;;;9.45;94.97
76998;BME280;65930;48.874;10.734;2024-03-02T11:39:50;94968.34;;;9.68;94.22
76998;BME280;65930;48.874;10.734;2024-03-02T11:42:19;94957.88;;;9.80;92.45
76998;BME280;65930;48.874;10.734;2024-03-02T11:44:48;94949.63;;;9.29;94.79
76998;BME280;65930;48.874;10.734;2024-03-02T11:47:17;94964.78;;;9.45;96.57
76998;BME280;65930;48.874;10.734;2024-03-02T11:49:48;94960.44;;;9.67;95.98
76998;BME280;65930;48.874;10.734;2024-03-02T11:52:19;94953.00;;;9.41;96.66
76998;BME280;65930;48.874;10.734;2024-03-02T11:54:48;94953.78;;;9.64;95.66
76998;BME280;65930;48.874;10.734;2024-03-02T11:57:22;94949.94;;;9.58;96.75
76998;BME280;65930;48.874;10.734;2024-03-02T11:59:50;94945.03;;;9.69;97.97
76998;BME280;65930;48.874;10.734;2024-03-02T12:02:19;94946.03;;;9.56;98.53
76998;BME280;65930;48.874;10.734;2024-03-02T12:04:49;94943.56;;;9.61;98.62
76998;BME280;65930;48.874;10.734;2024-03-02T12:07:22;94938.16;;;9.54;98.51
76998;BME280;65930;48.874;10.734;2024-03-02T12:09:59;94932.22;;;9.79;97.65
76998;BME280;65930;48.874;10.734;2024-03-02T12:12:31;94919.59;;;9.78;95.96
76998;BME280;65930;48.874;10.734;2024-03-02T12:15:00;94922.13;;;9.69;97.03
76998;BME280;65930;48.874;10.734;2024-03-02T12:17:29;94916.03;;;9.78;96.16
76998;BME280;65930;48.874;10.734;2024-03-02T12:19:57;94919.28;;;9.49;96.12
76998;BME280;65930;48.874;10.734;2024-03-02T12:22:26;94918.44;;;9.29;97.94
76998;BME280;65930;48.874;10.734;2024-03-02T12:24:54;94921.19;;;9.76;97.12
76998;BME280;65930;48.874;10.734;2024-03-02T12:27:22;94914.94;;;9.71;95.89
76998;BME280;65930;48.874;10.734;2024-03-02T12:29:51;94911.84;;;9.69;97.14
76998;BME280;65930;48.874;10.734;2024-03-02T12:32:19;94911.84;;;9.69;97.07
76998;BME280;65930;48.874;10.734;2024-03-02T12:34:47;94893.06;;;9.81;96.41
76998;BME280;65930;48.874;10.734;2024-03-02T12:37:18;94899.31;;;9.61;96.44
76998;BME280;65930;48.874;10.734;2024-03-02T12:39:47;94885.00;;;9.66;97.51
76998;BME280;65930;48.874;10.734;2024-03-02T12:42:15;94888.22;;;9.65;97.41
76998;BME280;65930;48.874;10.734;2024-03-02T12:44:43;94883.66;;;9.98;96.00
76998;BME280;65930;48.874;10.734;2024-03-02T12:47:12;94884.25;;;10.29;96.56
76998;BME280;65930;48.874;10.734;2024-03-02T12:49:40;94875.84;;;10.32;96.68
76998;BME280;65930;48.874;10.734;2024-03-02T12:52:08;94884.44;;;10.57;93.38
76998;BME280;65930;48.874;10.734;2024-03-02T12:54:37;94880.16;;;10.17;94.94
76998;BME280;65930;48.874;10.734;2024-03-02T12:57:06;94876.34;;;9.88;96.90
76998;BME280;65930;48.874;10.734;2024-03-02T12:59:34;94869.47;;;9.96;93.60
76998;BME280;65930;48.874;10.734;2024-03-02T13:02:04;94873.75;;;10.40;93.34